createdAt,value
2023-04-08T00:02:01.831Z,6.38
2023-04-08T00:04:29.184Z,6.37
2023-04-08T00:06:56.647Z,6.33
2023-04-08T00:09:23.767Z,6.32
2023-04-08T00:11:52.875Z,6.35
2023-04-08T00:14:20.184Z,6.37
2023-04-08T00:16:47.345Z,6.34
2023-04-08T00:19:14.712Z,6.40
2023-04-08T00:21:41.853Z,6.36
2023-04-08T00:24:09.090Z,6.32
2023-04-08T00:26:36.269Z,6.28
2023-04-08T00:29:03.741Z,6.24
2023-04-08T00:31:31.046Z,6.15
2023-04-08T00:33:59.309Z,6.11
2023-04-08T00:36:27.646Z,6.13
2023-04-08T00:38:54.806Z,6.06
2023-04-08T00:41:21.951Z,5.99
2023-04-08T00:43:49.156Z,5.98
2023-04-08T00:46:16.712Z,5.96
2023-04-08T00:48:43.997Z,5.81
2023-04-08T00:51:11.315Z,5.75
2023-04-08T00:53:38.528Z,5.77
2023-04-08T00:56:05.810Z,5.80
2023-04-08T00:58:33.488Z,5.79
2023-04-08T01:01:54.722Z,5.79
2023-04-08T01:04:40.888Z,5.78
2023-04-08T01:07:22.661Z,5.75
2023-04-08T01:09:56.656Z,5.77
2023-04-08T01:12:31.006Z,5.83
2023-04-08T01:15:08.702Z,5.85
2023-04-08T01:17:38.149Z,5.87
2023-04-08T01:20:07.549Z,5.85
2023-04-08T01:23:29.211Z,5.83
2023-04-08T01:25:57.338Z,5.89
2023-04-08T01:28:29.847Z,5.92
2023-04-08T01:31:01.368Z,5.92
2023-04-08T01:33:29.722Z,5.94
2023-04-08T01:35:59.067Z,5.92
2023-04-08T01:38:28.042Z,5.90
2023-04-08T01:40:57.155Z,5.91
2023-04-08T01:43:26.133Z,5.86
2023-04-08T01:45:58.148Z,5.89
2023-04-08T01:48:26.081Z,5.83
2023-04-08T01:50:55.158Z,5.79
2023-04-08T01:53:22.882Z,5.73
2023-04-08T01:55:58.564Z,5.71
2023-04-08T01:58:31.735Z,5.81
2023-04-08T02:00:59.909Z,5.88
2023-04-08T02:03:29.960Z,5.87
2023-04-08T02:05:57.377Z,5.80
2023-04-08T02:08:24.516Z,5.78
2023-04-08T02:10:51.785Z,5.78
2023-04-08T02:13:19.123Z,5.74
2023-04-08T02:15:57.789Z,5.69
2023-04-08T02:18:28.556Z,5.67
2023-04-08T02:21:10.063Z,5.75
2023-04-08T02:23:40.888Z,5.69
2023-04-08T02:26:16.798Z,5.67
2023-04-08T02:28:44.815Z,5.69
2023-04-08T02:31:16.050Z,5.80
2023-04-08T02:33:46.697Z,5.77
2023-04-08T02:36:15.690Z,5.73
2023-04-08T02:38:43.236Z,5.66
2023-04-08T02:41:10.393Z,5.69
2023-04-08T02:43:37.660Z,5.74
2023-04-08T02:46:07.320Z,5.58
2023-04-08T02:48:36.873Z,5.43
2023-04-08T02:51:04.188Z,5.42
2023-04-08T02:53:31.378Z,5.45
2023-04-08T02:55:58.584Z,5.41
2023-04-08T02:58:25.752Z,5.33
2023-04-08T03:00:53.049Z,5.28
2023-04-08T03:03:20.343Z,5.22
2023-04-08T03:05:47.522Z,5.16
2023-04-08T03:08:14.680Z,5.09
2023-04-08T03:10:42.070Z,5.03
2023-04-08T03:13:09.206Z,5.02
2023-04-08T03:15:36.436Z,4.90
2023-04-08T03:18:05.042Z,4.92
2023-04-08T03:20:32.370Z,5.03
2023-04-08T03:22:59.525Z,4.94
2023-04-08T03:25:29.038Z,4.84
2023-04-08T03:27:58.436Z,4.78
2023-04-08T03:30:26.135Z,4.78
2023-04-08T03:32:53.510Z,4.71
2023-04-08T03:35:20.941Z,4.66
2023-04-08T03:37:48.523Z,4.70
2023-04-08T03:40:15.795Z,4.71
2023-04-08T03:42:42.966Z,4.66
2023-04-08T03:45:10.439Z,4.66
2023-04-08T03:47:37.654Z,4.66
2023-04-08T03:50:05.395Z,4.63
2023-04-08T03:52:32.537Z,4.64
2023-04-08T03:54:59.725Z,4.65
2023-04-08T03:57:27.037Z,4.63
2023-04-08T03:59:54.413Z,4.64
2023-04-08T04:02:21.673Z,4.61
2023-04-08T04:04:48.962Z,4.57
2023-04-08T04:07:16.435Z,4.57
2023-04-08T04:09:43.600Z,4.51
2023-04-08T04:12:11.827Z,4.41
2023-04-08T04:14:38.955Z,4.39
2023-04-08T04:17:06.117Z,4.39
2023-04-08T04:19:33.227Z,4.37
2023-04-08T04:22:00.378Z,4.36
2023-04-08T04:24:27.582Z,4.31
2023-04-08T04:26:54.750Z,4.29
2023-04-08T04:29:21.966Z,4.24
2023-04-08T04:31:49.147Z,4.16
2023-04-08T04:34:16.508Z,4.12
2023-04-08T04:36:44.016Z,4.14
2023-04-08T04:39:11.237Z,4.17
2023-04-08T04:41:40.344Z,4.18
2023-04-08T04:44:07.579Z,4.11
2023-04-08T04:46:34.812Z,4.11
2023-04-08T04:49:02.006Z,4.09
2023-04-08T04:51:33.300Z,4.08
2023-04-08T04:54:00.783Z,4.01
2023-04-08T04:56:27.959Z,4.03
2023-04-08T04:58:55.105Z,3.98
2023-04-08T05:01:22.334Z,4.02
2023-04-08T05:03:49.489Z,4.06
2023-04-08T05:06:16.684Z,4.08
2023-04-08T05:08:43.840Z,4.07
2023-04-08T05:11:11.755Z,4.09
2023-04-08T05:13:38.917Z,4.07
2023-04-08T05:16:06.853Z,3.95
2023-04-08T05:18:34.094Z,3.93
2023-04-08T05:21:01.282Z,3.90
2023-04-08T05:23:28.723Z,3.89
2023-04-08T05:25:56.320Z,3.78
2023-04-08T05:28:23.519Z,3.87
2023-04-08T05:30:52.114Z,3.98
2023-04-08T05:33:19.502Z,3.94
2023-04-08T05:35:47.065Z,3.92
2023-04-08T05:38:14.212Z,3.93
2023-04-08T05:40:41.542Z,3.96
2023-04-08T05:43:08.750Z,4.03
2023-04-08T05:45:36.025Z,4.10
2023-04-08T05:48:03.366Z,4.18
2023-04-08T05:50:30.562Z,4.27
2023-04-08T05:52:57.861Z,4.34
2023-04-08T05:55:25.158Z,4.40
2023-04-08T05:57:52.344Z,4.51
2023-04-08T06:00:20.050Z,4.62
2023-04-08T06:02:47.332Z,4.70
2023-04-08T06:05:14.653Z,4.83
2023-04-08T06:07:41.818Z,4.92
2023-04-08T06:10:09.375Z,5.02
2023-04-08T06:12:40.885Z,5.14
2023-04-08T06:15:09.801Z,5.26
2023-04-08T06:17:38.422Z,5.39
2023-04-08T06:20:06.998Z,5.39
2023-04-08T06:22:34.151Z,5.47
2023-04-08T06:25:01.490Z,5.58
2023-04-08T06:27:29.007Z,5.65
2023-04-08T06:29:56.273Z,5.66
2023-04-08T06:32:23.568Z,5.73
2023-04-08T06:34:51.058Z,5.84
2023-04-08T06:37:18.262Z,5.93
2023-04-08T06:39:45.460Z,6.03
2023-04-08T06:42:12.613Z,6.10
2023-04-08T06:45:00.346Z,6.28
2023-04-08T06:47:27.528Z,6.76
2023-04-08T06:49:54.705Z,6.81
2023-04-08T06:52:21.914Z,6.77
2023-04-08T06:54:49.041Z,6.73
2023-04-08T06:57:16.235Z,6.83
2023-04-08T06:59:43.411Z,6.92
2023-04-08T07:02:10.578Z,7.07
2023-04-08T07:04:37.800Z,7.06
2023-04-08T07:07:04.922Z,7.24
2023-04-08T07:09:32.609Z,7.26
2023-04-08T07:11:59.911Z,7.42
2023-04-08T07:14:27.102Z,7.44
2023-04-08T07:16:54.417Z,7.46
2023-04-08T07:19:24.543Z,7.57
2023-04-08T07:21:52.684Z,7.78
2023-04-08T07:24:19.837Z,8.00
2023-04-08T07:26:47.722Z,8.17
2023-04-08T07:29:14.881Z,8.26
2023-04-08T07:31:44.345Z,8.32
2023-04-08T07:34:11.757Z,8.54
2023-04-08T07:36:39.188Z,8.49
2023-04-08T07:39:06.506Z,8.54
2023-04-08T07:41:33.634Z,8.54
2023-04-08T07:44:00.901Z,8.78
2023-04-08T07:46:28.070Z,8.84
2023-04-08T07:48:55.256Z,8.86
2023-04-08T07:51:22.396Z,9.08
2023-04-08T07:53:49.708Z,9.31
2023-04-08T07:56:18.278Z,9.11
2023-04-08T07:58:47.141Z,9.39
2023-04-08T08:01:23.020Z,9.65
2023-04-08T08:03:54.104Z,9.77
2023-04-08T08:06:22.209Z,9.76
2023-04-08T08:08:49.386Z,9.76
2023-04-08T08:11:16.566Z,9.74
2023-04-08T08:13:43.862Z,9.89
2023-04-08T08:16:12.098Z,10.28
2023-04-08T08:18:40.797Z,10.41
2023-04-08T08:21:09.255Z,10.22
2023-04-08T08:23:37.716Z,9.84
2023-04-08T08:26:10.244Z,10.07
2023-04-08T08:28:39.568Z,10.23
2023-04-08T08:31:07.162Z,10.52
2023-04-08T08:33:34.791Z,10.64
2023-04-08T08:36:02.188Z,10.78
2023-04-08T08:38:29.499Z,10.44
2023-04-08T08:41:01.519Z,10.58
2023-04-08T08:43:30.180Z,10.81
2023-04-08T08:45:57.436Z,10.95
2023-04-08T08:48:24.738Z,11.18
2023-04-08T08:50:52.282Z,11.28
2023-04-08T08:53:23.290Z,11.26
2023-04-08T08:56:16.478Z,11.11
2023-04-08T08:58:39.186Z,11.28
2023-04-08T09:01:37.767Z,11.66
2023-04-08T09:04:18.672Z,11.42
2023-04-08T09:07:13.886Z,11.56
2023-04-08T09:09:53.313Z,11.84
2023-04-08T09:12:20.835Z,11.74
2023-04-08T09:14:48.442Z,11.81
2023-04-08T09:17:17.130Z,11.81
2023-04-08T09:20:12.282Z,12.03
2023-04-08T09:23:02.497Z,11.96
2023-04-08T09:25:34.195Z,12.01
2023-04-08T09:28:02.807Z,12.55
2023-04-08T09:30:32.272Z,12.90
2023-04-08T09:33:01.296Z,12.89
2023-04-08T09:35:28.650Z,13.23
2023-04-08T09:37:55.981Z,13.45
2023-04-08T09:40:25.186Z,13.08
2023-04-08T09:42:54.338Z,12.81
2023-04-08T09:45:22.061Z,13.26
2023-04-08T09:48:19.263Z,13.01
2023-04-08T09:50:52.683Z,13.22
2023-04-08T09:53:38.992Z,13.10
2023-04-08T09:56:11.035Z,13.04
2023-04-08T09:58:49.459Z,13.26
2023-04-08T10:01:22.967Z,13.20
2023-04-08T10:03:57.361Z,13.64
2023-04-08T10:06:29.488Z,13.68
2023-04-08T10:08:56.937Z,13.43
2023-04-08T10:11:24.457Z,13.40
2023-04-08T10:13:52.515Z,13.72
2023-04-08T10:16:29.904Z,13.93
2023-04-08T10:18:57.300Z,13.72
2023-04-08T10:21:48.580Z,13.88
2023-04-08T10:24:15.763Z,14.27
2023-04-08T10:26:45.900Z,13.34
2023-04-08T10:29:19.174Z,13.63
2023-04-08T10:31:51.456Z,14.25
2023-04-08T10:34:27.237Z,14.38
2023-04-08T10:36:58.889Z,14.25
2023-04-08T10:39:27.210Z,13.98
2023-04-08T10:41:55.942Z,13.91
2023-04-08T10:44:29.098Z,13.96
2023-04-08T10:46:56.479Z,14.47
2023-04-08T10:49:35.567Z,14.79
2023-04-08T10:52:09.206Z,14.68
2023-04-08T10:54:38.428Z,14.87
2023-04-08T10:57:05.949Z,14.80
2023-04-08T10:59:33.281Z,14.47
2023-04-08T11:02:01.513Z,13.76
2023-04-08T11:04:30.439Z,17.04
2023-04-08T11:06:58.477Z,18.16
2023-04-08T11:09:25.623Z,18.96
2023-04-08T11:11:53.667Z,19.64
2023-04-08T11:14:22.430Z,17.36
2023-04-08T11:16:49.749Z,20.91
2023-04-08T11:19:17.091Z,18.63
2023-04-08T11:21:44.447Z,18.11
2023-04-08T11:24:13.609Z,18.49
2023-04-08T11:26:42.150Z,21.43
2023-04-08T11:29:14.341Z,19.27
2023-04-08T11:31:43.891Z,20.56
2023-04-08T11:34:11.397Z,20.48
2023-04-08T11:36:41.477Z,20.06
2023-04-08T11:39:12.059Z,22.47
2023-04-08T11:41:40.551Z,21.16
2023-04-08T11:44:08.606Z,20.05
2023-04-08T11:46:36.209Z,19.66
2023-04-08T11:49:07.978Z,18.10
2023-04-08T11:51:55.009Z,16.45
2023-04-08T11:54:33.459Z,17.01
2023-04-08T11:57:02.927Z,16.89
2023-04-08T11:59:30.305Z,17.66
2023-04-08T12:01:57.887Z,16.90
2023-04-08T12:04:25.592Z,15.92
2023-04-08T12:06:53.324Z,16.33
2023-04-08T12:09:20.505Z,16.69
2023-04-08T12:11:48.076Z,16.42
2023-04-08T12:14:15.575Z,16.74
2023-04-08T12:16:42.788Z,17.06
2023-04-08T12:19:10.094Z,17.31
2023-04-08T12:21:38.132Z,17.14
2023-04-08T12:24:05.580Z,16.30
2023-04-08T12:26:32.761Z,16.56
2023-04-08T12:28:59.879Z,16.33
2023-04-08T12:31:28.346Z,16.70
2023-04-08T12:33:55.505Z,16.67
2023-04-08T12:36:22.652Z,16.13
2023-04-08T12:38:50.079Z,15.78
2023-04-08T12:41:17.475Z,16.42
2023-04-08T12:43:44.696Z,16.58
2023-04-08T12:46:12.825Z,16.91
2023-04-08T12:48:40.846Z,16.81
2023-04-08T12:51:10.233Z,16.46
2023-04-08T12:53:37.562Z,17.26
2023-04-08T12:56:05.390Z,17.78
2023-04-08T12:58:32.527Z,17.01
2023-04-08T13:00:59.706Z,17.03
2023-04-08T13:03:30.192Z,17.38
2023-04-08T13:05:59.070Z,16.39
2023-04-08T13:08:26.468Z,17.10
2023-04-08T13:10:54.782Z,17.45
2023-04-08T13:13:21.803Z,17.06
2023-04-08T13:15:49.033Z,16.89
2023-04-08T13:18:16.546Z,16.83
2023-04-08T13:20:43.723Z,16.90
2023-04-08T13:23:10.922Z,17.17
2023-04-08T13:25:38.106Z,17.21
2023-04-08T13:28:05.285Z,18.10
2023-04-08T13:30:32.517Z,17.45
2023-04-08T13:32:59.713Z,17.99
2023-04-08T13:35:27.037Z,16.92
2023-04-08T13:37:54.179Z,17.75
2023-04-08T13:40:21.478Z,18.24
2023-04-08T13:42:48.797Z,18.68
2023-04-08T13:45:15.968Z,17.40
2023-04-08T13:47:43.203Z,17.04
2023-04-08T13:50:10.808Z,18.58
2023-04-08T13:52:38.096Z,17.15
2023-04-08T13:55:06.224Z,18.59
2023-04-08T13:57:33.275Z,18.10
2023-04-08T14:00:00.738Z,19.42
2023-04-08T14:02:28.242Z,21.51
2023-04-08T14:04:55.413Z,23.94
2023-04-08T14:07:22.548Z,24.77
2023-04-08T14:09:49.734Z,18.50
2023-04-08T14:12:16.900Z,18.58
2023-04-08T14:14:44.028Z,21.17
2023-04-08T14:17:11.248Z,23.43
2023-04-08T14:19:38.507Z,25.22
2023-04-08T14:22:05.801Z,24.72
2023-04-08T14:24:32.959Z,20.47
2023-04-08T14:27:00.139Z,22.07
2023-04-08T14:29:27.803Z,23.68
2023-04-08T14:31:54.955Z,22.86
2023-04-08T14:34:22.172Z,22.53
2023-04-08T14:36:49.406Z,26.29
2023-04-08T14:39:16.609Z,22.47
2023-04-08T14:41:43.837Z,19.96
2023-04-08T14:44:10.975Z,18.67
2023-04-08T14:46:38.342Z,21.03
2023-04-08T14:49:07.014Z,21.50
2023-04-08T14:51:34.432Z,20.37
2023-04-08T14:54:02.038Z,18.87
2023-04-08T14:56:29.239Z,19.17
2023-04-08T14:58:56.433Z,19.13
2023-04-08T15:01:23.731Z,18.34
2023-04-08T15:03:51.013Z,19.15
2023-04-08T15:06:18.654Z,20.80
2023-04-08T15:08:45.883Z,23.94
2023-04-08T15:11:13.127Z,25.29
2023-04-08T15:13:40.580Z,24.38
2023-04-08T15:16:07.826Z,22.17
2023-04-08T15:18:36.091Z,21.26
2023-04-08T15:21:03.555Z,19.38
2023-04-08T15:23:30.953Z,18.50
2023-04-08T15:25:58.182Z,19.55
2023-04-08T15:28:25.309Z,20.60
2023-04-08T15:30:52.550Z,20.88
2023-04-08T15:33:19.988Z,20.25
2023-04-08T15:35:48.344Z,19.97
2023-04-08T15:38:16.290Z,19.05
2023-04-08T15:40:44.211Z,20.68
2023-04-08T15:43:12.404Z,18.69
2023-04-08T15:45:44.396Z,19.00
2023-04-08T15:48:11.762Z,19.73
2023-04-08T15:50:39.113Z,17.81
2023-04-08T15:53:06.266Z,18.04
2023-04-08T15:55:41.535Z,18.90
2023-04-08T15:58:08.735Z,18.16
2023-04-08T16:00:36.043Z,17.52
2023-04-08T16:03:05.421Z,17.45
2023-04-08T16:05:35.876Z,17.66
2023-04-08T16:08:04.476Z,17.51
2023-04-08T16:10:31.809Z,17.58
2023-04-08T16:12:59.078Z,17.21
2023-04-08T16:15:26.576Z,17.30
2023-04-08T16:17:54.036Z,17.25
2023-04-08T16:20:21.892Z,17.19
2023-04-08T16:22:50.129Z,17.23
2023-04-08T16:25:17.705Z,17.20
2023-04-08T16:27:44.911Z,17.19
2023-04-08T16:30:12.403Z,17.00
2023-04-08T16:32:40.265Z,16.89
2023-04-08T16:35:08.408Z,16.63
2023-04-08T16:37:35.577Z,16.71
2023-04-08T16:40:03.774Z,17.00
2023-04-08T16:42:31.275Z,16.50
2023-04-08T16:44:59.709Z,16.54
2023-04-08T16:47:27.500Z,16.68
2023-04-08T16:49:54.955Z,17.04
2023-04-08T16:52:22.294Z,17.10
2023-04-08T16:54:49.457Z,17.28
2023-04-08T16:57:16.765Z,16.88
2023-04-08T16:59:44.067Z,16.75
2023-04-08T17:02:11.294Z,16.95
2023-04-08T17:04:38.776Z,16.83
2023-04-08T17:07:06.560Z,16.81
2023-04-08T17:09:34.265Z,16.60
2023-04-08T17:12:02.046Z,17.43
2023-04-08T17:14:29.273Z,17.94
2023-04-08T17:16:57.238Z,17.62
2023-04-08T17:19:24.488Z,17.26
2023-04-08T17:21:52.057Z,17.19
2023-04-08T17:24:19.366Z,16.82
2023-04-08T17:26:46.684Z,16.55
2023-04-08T17:29:13.788Z,16.37
2023-04-08T17:31:41.361Z,16.06
2023-04-08T17:34:08.605Z,15.81
2023-04-08T17:36:35.787Z,15.63
2023-04-08T17:39:02.944Z,15.51
2023-04-08T17:41:39.555Z,15.40
2023-04-08T17:44:07.938Z,15.32
2023-04-08T17:46:35.146Z,15.30
2023-04-08T17:49:02.371Z,15.20
2023-04-08T17:51:30.913Z,15.08
2023-04-08T17:53:58.778Z,14.95
2023-04-08T17:56:27.682Z,14.72
2023-04-08T17:58:54.857Z,14.63
2023-04-08T18:01:22.516Z,14.61
2023-04-08T18:03:51.713Z,14.50
2023-04-08T18:06:19.264Z,14.45
2023-04-08T18:08:46.439Z,14.47
2023-04-08T18:11:13.581Z,14.39
2023-04-08T18:13:40.711Z,14.35
2023-04-08T18:16:17.323Z,14.35
2023-04-08T18:18:46.040Z,14.81
2023-04-08T18:21:15.265Z,14.72
2023-04-08T18:23:42.470Z,14.57
2023-04-08T18:26:10.739Z,14.29
2023-04-08T18:28:37.879Z,14.09
2023-04-08T18:31:05.185Z,13.95
2023-04-08T18:33:32.471Z,13.76
2023-04-08T18:36:12.159Z,13.59
2023-04-08T18:38:40.831Z,13.17
2023-04-08T18:41:08.635Z,13.10
2023-04-08T18:43:36.013Z,12.80
2023-04-08T18:46:04.652Z,12.75
2023-04-08T18:48:33.068Z,12.75
2023-04-08T18:51:01.878Z,12.46
2023-04-08T18:53:29.098Z,12.01
2023-04-08T18:55:56.415Z,12.03
2023-04-08T18:58:23.556Z,11.95
2023-04-08T19:00:50.962Z,11.83
2023-04-08T19:03:18.173Z,11.77
2023-04-08T19:05:46.483Z,11.68
2023-04-08T19:08:13.725Z,11.45
2023-04-08T19:10:41.150Z,11.42
2023-04-08T19:13:08.697Z,11.47
2023-04-08T19:15:36.992Z,11.36
2023-04-08T19:18:05.568Z,11.34
2023-04-08T19:20:33.660Z,11.32
2023-04-08T19:23:00.870Z,11.31
2023-04-08T19:25:28.025Z,11.30
2023-04-08T19:27:55.207Z,11.16
2023-04-08T19:30:22.380Z,11.09
2023-04-08T19:32:49.666Z,10.92
2023-04-08T19:35:16.843Z,10.94
2023-04-08T19:37:44.238Z,10.83
2023-04-08T19:40:11.711Z,10.68
2023-04-08T19:42:38.897Z,10.50
2023-04-08T19:45:06.977Z,10.47
2023-04-08T19:47:34.673Z,10.51
2023-04-08T19:50:01.907Z,10.69
2023-04-08T19:52:29.030Z,10.71
2023-04-08T19:54:56.294Z,10.81
2023-04-08T19:57:24.042Z,10.83
2023-04-08T19:59:53.710Z,10.82
2023-04-08T20:02:22.065Z,10.72
2023-04-08T20:04:49.366Z,10.68
2023-04-08T20:07:16.747Z,10.49
2023-04-08T20:09:43.930Z,10.58
2023-04-08T20:12:11.368Z,10.60
2023-04-08T20:14:43.118Z,10.44
2023-04-08T20:17:11.534Z,10.41
2023-04-08T20:19:38.903Z,10.28
2023-04-08T20:22:06.088Z,10.20
2023-04-08T20:24:33.243Z,10.44
2023-04-08T20:27:00.372Z,10.35
2023-04-08T20:29:28.484Z,10.51
2023-04-08T20:31:55.757Z,10.38
2023-04-08T20:34:22.975Z,10.27
2023-04-08T20:36:50.907Z,10.07
2023-04-08T20:39:18.436Z,9.92
2023-04-08T20:41:45.687Z,9.92
2023-04-08T20:44:12.993Z,10.06
2023-04-08T20:46:40.243Z,10.04
2023-04-08T20:49:07.593Z,9.92
2023-04-08T20:51:34.882Z,9.94
2023-04-08T20:54:02.409Z,9.81
2023-04-08T20:56:29.724Z,9.66
2023-04-08T20:58:59.667Z,9.66
2023-04-08T21:01:27.725Z,9.67
2023-04-08T21:03:55.935Z,9.79
2023-04-08T21:06:23.791Z,9.81
2023-04-08T21:08:51.429Z,9.73
2023-04-08T21:11:19.149Z,9.68
2023-04-08T21:13:48.645Z,9.61
2023-04-08T21:16:16.667Z,9.63
2023-04-08T21:18:43.906Z,9.66
2023-04-08T21:21:11.280Z,9.58
2023-04-08T21:23:38.515Z,9.31
2023-04-08T21:26:15.315Z,9.28
2023-04-08T21:28:43.886Z,9.10
2023-04-08T21:31:12.832Z,9.22
2023-04-08T21:33:40.595Z,9.05
2023-04-08T21:36:08.001Z,8.97
2023-04-08T21:38:35.404Z,8.95
2023-04-08T21:41:02.689Z,8.92
2023-04-08T21:43:29.927Z,8.73
2023-04-08T21:45:57.112Z,8.64
2023-04-08T21:48:24.422Z,8.62
2023-04-08T21:50:51.638Z,8.59
2023-04-08T21:53:19.972Z,8.49
2023-04-08T21:55:47.084Z,8.45
2023-04-08T21:58:14.474Z,8.43
2023-04-08T22:00:41.757Z,8.42
2023-04-08T22:03:09.083Z,8.44
2023-04-08T22:05:36.814Z,8.46
2023-04-08T22:08:04.205Z,8.37
2023-04-08T22:10:31.347Z,8.36
2023-04-08T22:12:58.533Z,8.35
2023-04-08T22:15:25.694Z,8.29
2023-04-08T22:17:53.122Z,8.22
2023-04-08T22:20:20.414Z,8.17
2023-04-08T22:22:47.786Z,8.08
2023-04-08T22:25:15.272Z,8.11
2023-04-08T22:27:42.526Z,7.99
2023-04-08T22:30:10.499Z,7.95
2023-04-08T22:32:37.726Z,7.95
2023-04-08T22:35:06.102Z,7.94
2023-04-08T22:37:33.264Z,7.98
2023-04-08T22:40:01.027Z,7.95
2023-04-08T22:42:28.199Z,7.97
2023-04-08T22:44:55.709Z,7.93
2023-04-08T22:47:22.984Z,7.96
2023-04-08T22:49:50.389Z,7.94
2023-04-08T22:52:17.568Z,7.93
2023-04-08T22:54:44.750Z,8.02
2023-04-08T22:57:11.850Z,7.94
2023-04-08T22:59:39.074Z,7.90
2023-04-08T23:02:06.441Z,7.84
2023-04-08T23:04:33.656Z,7.84
2023-04-08T23:07:01.071Z,7.82
2023-04-08T23:09:28.352Z,7.77
2023-04-08T23:11:55.890Z,7.81
2023-04-08T23:14:23.026Z,7.89
2023-04-08T23:16:50.300Z,7.91
2023-04-08T23:19:17.434Z,7.86
2023-04-08T23:21:44.582Z,7.79
2023-04-08T23:24:11.765Z,7.80
2023-04-08T23:26:38.923Z,7.80
2023-04-08T23:29:06.066Z,7.82
2023-04-08T23:31:33.325Z,7.81
2023-04-08T23:34:00.581Z,7.74
2023-04-08T23:36:27.776Z,7.68
2023-04-08T23:38:55.105Z,7.73
2023-04-08T23:41:22.296Z,7.70
2023-04-08T23:43:49.553Z,7.70
2023-04-08T23:46:16.864Z,7.76
2023-04-08T23:48:44.072Z,7.77
2023-04-08T23:51:11.795Z,7.70
2023-04-08T23:53:39.005Z,7.65
2023-04-08T23:56:08.879Z,7.71
2023-04-08T23:58:36.403Z,7.69
